Date,TemperatureHighF,TemperatureAvgF,TemperatureLowF,DewpointHighF,DewpointAvgF,DewpointLowF,HumidityHigh,HumidityAvg,HumidityLow,PressureMaxIn,PressureMinIn,WindSpeedMaxMPH,WindSpeedAvgMPH,GustSpeedMaxMPH,PrecipitationSumIn
2013-4-1,42.8,36.1,28.8,28.9,22.2,15.8,88,59,36,30.27,30.18,17,7,0,0.00
2013-4-2,52.9,38.9,22.8,33.3,28.3,22.3,98,69,43,30.27,30.15,8,3,0,0.00
2013-4-3,53.6,41.6,29.1,35.6,31.4,27.4,98,69,47,30.31,30.16,12,5,0,0.00
2013-4-4,67.3,50.2,30.0,48.4,40.8,29.5,98,72,49,30.18,29.95,7,4,0,0.00
2013-4-5,71.4,53.5,33.6,51.1,43.7,33.1,98,73,44,30.11,29.64,18,8,0,0.00
2013-4-6,74.7,62.3,54.3,58.7,51.6,47.2,98,69,47,29.71,29.43,18,8,0,0.00
2013-4-7,78.6,60.7,44.4,60.2,49.7,43.7,98,72,35,29.79,29.53,17,6,0,0.48
2013-4-8,70.5,59.0,48.0,69.9,58.5,47.5,98,98,98,29.64,29.55,9,4,0,0.01
2013-4-9,70.0,53.9,36.5,69.4,53.4,36.0,98,98,98,29.84,29.49,20,10,0,0.32
2013-4-10,40.5,37.5,33.6,40.0,37.0,33.1,98,98,98,29.90,29.74,15,6,0,0.97
2013-4-11,39.4,33.8,30.9,38.9,33.3,30.4,98,98,98,29.75,29.60,11,4,0,0.00
2013-4-12,48.4,37.8,32.2,46.6,36.7,31.7,98,96,83,29.97,29.68,12,6,0,0.00
2013-4-13,57.4,44.1,28.0,52.7,42.6,27.5,98,95,83,29.99,29.57,16,7,0,0.00
2013-4-14,72.7,57.6,45.7,68.8,52.2,38.6,98,84,49,29.62,29.24,21,8,0,0.00
2013-4-15,47.8,42.8,37.2,39.0,35.7,31.9,98,76,63,30.00,29.62,14,6,0,0.00
2013-4-16,49.5,42.4,33.8,42.5,38.5,33.3,98,87,66,30.17,29.99,16,8,0,0.00
2013-4-17,46.0,43.4,39.2,45.4,42.8,38.7,98,98,89,30.08,29.61,20,7,0,2.90
2013-4-18,38.7,35.4,32.4,38.2,34.9,31.9,98,98,98,29.87,29.60,24,12,0,0.34
2013-4-19,51.8,39.2,29.3,37.3,31.5,28.4,98,77,45,30.06,29.74,17,8,0,0.00
2013-4-20,51.8,40.8,27.3,38.3,33.2,26.8,98,77,49,30.19,30.06,14,6,0,0.00
2013-4-21,69.6,56.5,44.2,55.3,48.1,37.0,98,75,54,30.12,29.94,21,10,0,0.00
2013-4-22,62.4,49.3,35.1,61.5,48.7,34.6,98,98,91,30.13,29.84,23,7,0,0.66
2013-4-23,41.2,34.5,30.4,38.3,29.1,21.9,98,83,49,30.18,29.91,24,13,0,0.01
2013-4-24,59.5,42.6,24.3,34.8,27.0,21.4,90,58,31,29.99,29.81,14,5,0,0.00
2013-4-25,70.0,53.2,34.2,39.6,32.9,28.0,84,50,25,30.01,29.80,16,6,0,0.00
2013-4-26,66.2,56.1,49.1,49.4,43.8,36.6,88,64,51,29.99,29.82,18,10,0,0.00
2013-4-27,68.2,55.1,49.1,48.9,47.2,44.7,93,76,50,29.98,29.75,9,3,0,0.00
2013-4-28,80.6,63.0,45.5,54.7,49.7,44.7,99,67,33,29.76,29.51,17,8,0,0.00
2013-4-29,85.5,70.5,54.1,61.5,55.7,53.2,98,64,34,29.59,29.38,14,6,0,0.00
2013-4-30,86.9,73.9,60.3,60.5,53.5,45.7,72,50,38,29.78,29.43,14,8,0,0.00